Time;durP1;ratioP1;P1;durP2;ratioP2;P2;SDS_P1;SDS_P2;PMS_P1;PMS_P2;Temp;Humidity;BMP_temperature;BMP_pressure;BME280_temperature;BME280_humidity;BME280_pressure;Samples;Min_cycle;Max_cycle;Signal;HPM_P1;HPM_P2
2023/10/07 00:00:52;;;;;;;7.27;5.23;;;13.40;99.90;;;;;;5085923;28;20778;-77
2023/10/07 00:03:19;;;;;;;9.63;5.77;;;13.40;99.90;;;;;;5086086;28;20184;-77
2023/10/07 00:05:50;;;;;;;11.77;5.20;;;13.40;99.90;;;;;;5085883;28;20570;-77
2023/10/07 00:08:16;;;;;;;7.77;5.53;;;13.40;99.90;;;;;;5085717;28;20417;-78
2023/10/07 00:10:48;;;;;;;11.37;5.80;;;13.40;99.90;;;;;;5085631;28;20678;-76
2023/10/07 00:13:14;;;;;;;11.87;5.90;;;13.40;99.90;;;;;;5084778;28;21090;-77
2023/10/07 00:15:43;;;;;;;10.80;6.47;;;13.30;99.90;;;;;;5085329;28;20425;-77
2023/10/07 00:18:13;;;;;;;8.27;5.03;;;13.30;99.90;;;;;;5083670;28;20326;-77
2023/10/07 00:20:56;;;;;;;14.57;6.07;;;13.30;99.90;;;;;;5085350;28;20421;-77
2023/10/07 00:23:28;;;;;;;7.00;5.27;;;13.40;99.90;;;;;;5086181;28;20427;-78
2023/10/07 00:25:55;;;;;;;10.90;6.20;;;13.40;99.90;;;;;;5084212;28;20476;-80
2023/10/07 00:28:32;;;;;;;8.93;5.77;;;13.40;99.90;;;;;;5085372;28;20413;-78
2023/10/07 00:31:03;;;;;;;9.80;4.90;;;13.40;99.90;;;;;;5083881;28;20482;-78
2023/10/07 00:33:30;;;;;;;8.70;5.40;;;13.40;99.90;;;;;;5086115;28;20816;-79
2023/10/07 00:36:02;;;;;;;10.33;5.43;;;13.40;99.90;;;;;;5084131;28;20843;-80
2023/10/07 00:38:37;;;;;;;10.43;6.00;;;13.30;99.90;;;;;;5085402;28;20472;-78
2023/10/07 00:41:04;;;;;;;8.10;5.07;;;13.30;99.90;;;;;;5085234;28;20774;-78
2023/10/07 00:43:33;;;;;;;8.27;6.23;;;13.30;99.90;;;;;;5085918;28;20461;-79
2023/10/07 00:46:28;;;;;;;9.53;5.80;;;13.30;99.90;;;;;;5085123;28;20480;-79
2023/10/07 00:48:57;;;;;;;9.13;5.63;;;13.30;99.90;;;;;;5085477;28;20424;-80
2023/10/07 00:51:33;;;;;;;7.60;5.57;;;13.20;99.90;;;;;;5084773;28;20850;-78
2023/10/07 00:54:18;;;;;;;10.20;6.00;;;13.20;99.90;;;;;;5083723;28;20464;-79
2023/10/07 00:57:04;;;;;;;10.10;6.37;;;13.20;99.90;;;;;;5084408;28;20405;-79
2023/10/07 00:59:30;;;;;;;9.53;5.40;;;13.20;99.90;;;;;;5085556;28;20448;-76
2023/10/07 01:01:57;;;;;;;8.10;5.10;;;13.20;99.90;;;;;;5087757;28;20412;-78
2023/10/07 01:04:24;;;;;;;11.23;5.43;;;13.20;99.90;;;;;;5088846;28;20484;-78
2023/10/07 01:06:59;;;;;;;6.27;5.20;;;13.10;99.90;;;;;;5089187;28;20244;-76
2023/10/07 01:09:24;;;;;;;9.50;5.03;;;13.10;99.90;;;;;;5088793;28;20463;-77
2023/10/07 01:11:57;;;;;;;9.33;6.40;;;13.10;99.90;;;;;;5087879;28;20424;-78
2023/10/07 01:14:27;;;;;;;7.63;5.03;;;13.00;99.90;;;;;;5087369;28;20601;-76
2023/10/07 01:16:53;;;;;;;8.75;6.13;;;13.00;99.90;;;;;;5088862;28;20165;-76
2023/10/07 01:19:43;;;;;;;9.60;5.70;;;12.90;99.90;;;;;;5087465;28;20184;-76
2023/10/07 01:22:18;;;;;;;9.50;6.60;;;12.90;99.90;;;;;;5087615;28;20628;-76
2023/10/07 01:24:44;;;;;;;7.97;5.87;;;12.80;99.90;;;;;;5088604;28;20358;-76
2023/10/07 01:30:15;;;;;;;7.15;6.05;;;12.80;99.90;;;;;;5088236;28;20479;-77
2023/10/07 01:35:32;;;;;;;7.07;5.83;;;12.80;99.90;;;;;;5088295;28;20451;-76
2023/10/07 01:38:07;;;;;;;9.05;5.90;;;12.80;99.90;;;;;;5086728;28;20471;-77
2023/10/07 01:40:55;;;;;;;6.97;5.07;;;12.80;99.90;;;;;;5088396;28;20645;-78
2023/10/07 01:43:20;;;;;;;10.93;5.57;;;12.80;99.90;;;;;;5088391;28;20200;-78
2023/10/07 01:45:48;;;;;;;9.90;5.90;;;12.80;99.90;;;;;;5088496;28;20469;-76
2023/10/07 01:48:17;;;;;;;9.53;5.83;;;12.70;99.90;;;;;;5088391;28;20634;-77
2023/10/07 01:50:44;;;;;;;9.45;5.35;;;12.80;99.90;;;;;;5088002;28;20440;-76
2023/10/07 01:53:11;;;;;;;7.38;5.97;;;12.70;99.90;;;;;;5086810;28;20180;-77
2023/10/07 01:55:44;;;;;;;13.75;6.72;;;12.60;99.90;;;;;;5087988;28;20197;-77
2023/10/07 01:58:14;;;;;;;11.52;6.75;;;12.60;99.90;;;;;;5086776;28;20181;-76
2023/10/07 02:00:44;;;;;;;12.80;7.00;;;12.50;99.90;;;;;;5088052;28;20773;-76
2023/10/07 02:03:16;;;;;;;11.32;6.70;;;12.40;99.90;;;;;;5086679;28;20220;-77
2023/10/07 02:05:49;;;;;;;10.45;7.40;;;12.40;99.90;;;;;;5087553;28;20402;-76
2023/10/07 02:08:23;;;;;;;9.30;7.60;;;12.30;99.90;;;;;;5088183;28;20192;-76
2023/10/07 02:10:59;;;;;;;8.90;6.43;;;12.30;99.90;;;;;;5086679;28;20253;-76
2023/10/07 02:13:29;;;;;;;15.65;9.07;;;12.30;99.90;;;;;;5086308;28;20334;-78
2023/10/07 02:15:55;;;;;;;11.02;7.32;;;12.30;99.90;;;;;;5087556;28;20195;-76
2023/10/07 02:18:22;;;;;;;11.10;7.30;;;12.40;99.90;;;;;;5086437;28;20525;-78
2023/10/07 02:20:49;;;;;;;13.57;7.82;;;12.40;99.90;;;;;;5087425;28;20602;-76
2023/10/07 02:23:28;;;;;;;11.57;7.22;;;12.40;99.90;;;;;;5085841;28;20195;-76
2023/10/07 02:25:57;;;;;;;11.45;7.80;;;12.40;99.90;;;;;;5086811;28;20226;-77
2023/10/07 02:28:29;;;;;;;17.63;8.45;;;12.30;99.90;;;;;;5087914;28;20169;-77
2023/10/07 02:31:01;;;;;;;10.98;7.50;;;12.30;99.90;;;;;;5086726;28;20255;-77
2023/10/07 02:33:28;;;;;;;10.90;7.45;;;12.20;99.90;;;;;;5087731;28;20704;-77
2023/10/07 02:35:56;;;;;;;9.20;5.88;;;12.10;99.90;;;;;;5085460;28;20192;-77
2023/10/07 02:38:41;;;;;;;12.63;7.70;;;12.10;99.90;;;;;;5087284;28;20697;-75
2023/10/07 02:41:17;;;;;;;12.82;7.72;;;12.10;99.90;;;;;;5086830;28;20189;-77
2023/10/07 02:43:47;;;;;;;12.88;7.68;;;12.00;99.90;;;;;;5087311;28;20642;-77
2023/10/07 02:46:26;;;;;;;13.25;9.02;;;12.00;99.90;;;;;;5085637;28;20232;-77
2023/10/07 02:48:55;;;;;;;13.05;7.05;;;12.00;99.90;;;;;;5087455;28;20196;-76
2023/10/07 02:51:21;;;;;;;11.00;6.82;;;12.00;99.90;;;;;;5085398;28;20200;-76
2023/10/07 02:53:46;;;;;;;12.70;7.63;;;12.00;99.90;;;;;;5085958;28;20532;-77
2023/10/07 02:56:18;;;;;;;10.10;8.10;;;12.00;99.90;;;;;;5086578;28;20700;-77
2023/10/07 02:58:58;;;;;;;11.93;7.28;;;12.10;99.90;;;;;;5087141;28;20298;-76
2023/10/07 03:01:26;;;;;;;12.70;7.18;;;12.10;99.90;;;;;;5085716;28;20207;-78
2023/10/07 03:03:52;;;;;;;22.27;8.65;;;12.00;99.90;;;;;;5087404;28;20229;-76
2023/10/07 03:06:17;;;;;;;10.10;7.40;;;12.10;99.90;;;;;;5086881;28;20212;-78
2023/10/07 03:08:50;;;;;;;12.90;7.00;;;12.00;99.90;;;;;;5087283;28;20251;-78
2023/10/07 03:11:22;;;;;;;11.85;7.30;;;12.00;99.90;;;;;;5085369;28;20212;-77
2023/10/07 03:13:57;;;;;;;11.75;7.50;;;12.00;99.90;;;;;;5087141;28;20166;-77
2023/10/07 03:24:10;;;;;;;15.30;8.18;;;12.10;99.90;;;;;;5086661;28;20188;-78
2023/10/07 03:26:37;;;;;;;15.13;8.18;;;12.00;99.90;;;;;;5086035;28;20183;-76
2023/10/07 03:29:06;;;;;;;11.73;7.50;;;12.00;99.90;;;;;;5084723;28;20361;-76
2023/10/07 03:34:09;;;;;;;15.05;7.00;;;11.90;99.90;;;;;;5086598;28;20184;-77
2023/10/07 03:36:41;;;;;;;13.20;9.13;;;11.90;99.90;;;;;;5086306;28;20572;-76
2023/10/07 03:41:48;;;;;;;11.40;8.18;;;11.90;99.90;;;;;;5086591;28;20172;-76
2023/10/07 03:44:18;;;;;;;13.13;7.43;;;11.90;99.90;;;;;;5086300;28;20258;-76
2023/10/07 03:46:47;;;;;;;11.23;7.25;;;11.90;99.90;;;;;;5086318;28;20176;-76
2023/10/07 03:49:15;;;;;;;12.48;8.13;;;11.90;99.90;;;;;;5086005;28;20180;-76
2023/10/07 03:51:41;;;;;;;11.18;7.25;;;11.90;99.90;;;;;;5086378;28;20168;-77
2023/10/07 03:54:10;;;;;;;13.43;7.55;;;11.90;99.90;;;;;;5086168;28;20263;-76
2023/10/07 03:56:38;;;;;;;8.80;7.28;;;11.90;99.90;;;;;;5085828;28;20176;-77
2023/10/07 03:59:05;;;;;;;11.77;7.32;;;11.90;99.90;;;;;;5084546;28;20406;-76
2023/10/07 04:01:35;;;;;;;12.70;7.55;;;11.80;99.90;;;;;;5086013;28;20164;-76
2023/10/07 04:04:01;;;;;;;10.98;8.05;;;11.80;99.90;;;;;;5084799;28;20767;-76
2023/10/07 04:06:30;;;;;;;10.65;7.50;;;11.70;99.90;;;;;;5084328;28;20693;-76
2023/10/07 04:09:07;;;;;;;13.40;8.93;;;11.70;99.90;;;;;;5084822;28;20222;-77
2023/10/07 04:11:38;;;;;;;9.82;7.65;;;11.70;99.90;;;;;;5084555;28;20255;-76
2023/10/07 04:16:50;;;;;;;11.75;8.40;;;11.70;99.90;;;;;;5085760;28;20202;-76
2023/10/07 04:21:41;;;;;;;15.23;8.37;;;11.60;99.90;;;;;;5085920;28;20182;-76
2023/10/07 04:24:11;;;;;;;12.40;8.37;;;11.60;99.90;;;;;;5085510;28;20173;-76
2023/10/07 04:29:43;;;;;;;12.25;8.50;;;11.50;99.90;;;;;;5083266;28;20698;-78
2023/10/07 04:32:13;;;;;;;10.40;7.73;;;11.50;99.90;;;;;;5085572;28;20189;-77
2023/10/07 04:35:00;;;;;;;11.63;7.85;;;11.40;99.90;;;;;;5085749;28;20444;-77
2023/10/07 04:37:30;;;;;;;11.48;7.95;;;11.40;99.90;;;;;;5089699;28;20511;-78
2023/10/07 04:42:52;;;;;;;13.68;7.53;;;11.40;99.90;;;;;;5090141;28;20164;-78
2023/10/07 04:45:23;;;;;;;14.60;8.65;;;11.40;99.90;;;;;;5088067;28;20220;-78
2023/10/07 04:47:57;;;;;;;9.77;6.50;;;11.40;99.90;;;;;;5089727;28;20413;-77
2023/10/07 04:50:33;;;;;;;10.02;6.43;;;11.40;99.90;;;;;;5089004;28;20188;-78
2023/10/07 04:53:03;;;;;;;12.10;7.60;;;11.40;99.90;;;;;;5088434;28;20615;-76
2023/10/07 04:55:29;;;;;;;11.82;8.27;;;11.40;99.90;;;;;;5089407;28;20189;-76
2023/10/07 05:00:30;;;;;;;15.47;8.20;;;11.30;99.90;;;;;;5089170;28;20830;-77
2023/10/07 05:03:01;;;;;;;11.95;7.95;;;11.20;99.90;;;;;;5088956;28;20229;-78
2023/10/07 05:05:30;;;;;;;11.93;8.02;;;11.20;99.90;;;;;;5087590;28;20236;-76
2023/10/07 05:08:10;;;;;;;11.65;7.38;;;11.20;99.90;;;;;;5087772;28;20184;-76
2023/10/07 05:10:41;;;;;;;13.05;7.95;;;11.20;99.90;;;;;;5087704;28;20317;-75
2023/10/07 05:13:07;;;;;;;11.73;8.25;;;11.20;99.90;;;;;;5088929;28;20195;-78
2023/10/07 05:15:40;;;;;;;13.73;8.10;;;11.20;99.90;;;;;;5088786;28;20196;-77
2023/10/07 05:18:06;;;;;;;6.70;6.00;;;11.40;99.90;;;;;;5088827;28;20180;-79
2023/10/07 05:20:37;;;;;;;10.10;7.70;;;11.70;99.90;;;;;;5087557;28;20199;-78
2023/10/07 05:23:04;;;;;;;14.35;8.50;;;11.90;99.90;;;;;;5086699;28;20207;-78
2023/10/07 05:25:38;;;;;;;14.15;7.55;;;12.10;99.90;;;;;;5087189;28;20303;-78
2023/10/07 05:28:10;;;;;;;15.52;9.23;;;12.20;99.90;;;;;;5088148;28;20195;-78
2023/10/07 05:30:50;;;;;;;18.92;10.77;;;12.30;99.90;;;;;;5087155;28;20228;-78
2023/10/07 05:33:28;;;;;;;18.15;8.82;;;12.40;99.90;;;;;;5087349;28;20212;-79
2023/10/07 05:36:02;;;;;;;12.48;8.65;;;12.60;99.90;;;;;;5088315;28;20314;-78
2023/10/07 05:38:30;;;;;;;12.60;6.78;;;12.70;99.90;;;;;;5088718;28;20223;-79
2023/10/07 05:41:00;;;;;;;6.70;5.65;;;12.90;99.90;;;;;;5086738;28;20196;-78
2023/10/07 05:43:26;;;;;;;15.60;7.30;;;13.00;99.90;;;;;;5087512;28;20175;-76
2023/10/07 05:45:54;;;;;;;15.35;7.22;;;13.00;99.90;;;;;;5087428;28;20362;-76
2023/10/07 05:48:20;;;;;;;8.38;6.88;;;12.80;99.90;;;;;;5087407;28;20654;-76
2023/10/07 05:50:47;;;;;;;9.20;7.00;;;12.70;99.90;;;;;;5085863;28;20330;-76
2023/10/07 05:53:15;;;;;;;12.70;7.00;;;12.50;99.90;;;;;;5104904;27;20963;-76
2023/10/07 05:55:41;;;;;;;9.38;6.20;;;12.40;99.90;;;;;;5106801;28;20274;-76
2023/10/07 05:58:08;;;;;;;10.48;7.78;;;12.40;99.90;;;;;;5105345;28;20176;-78
2023/10/07 06:00:36;;;;;;;12.40;5.75;;;12.40;99.90;;;;;;5099382;28;20193;-76
2023/10/07 06:03:06;;;;;;;10.07;5.32;;;12.30;99.90;;;;;;5086517;28;20209;-76
2023/10/07 06:05:38;;;;;;;9.18;5.95;;;12.30;99.90;;;;;;5084936;28;20228;-76
2023/10/07 06:08:10;;;;;;;8.73;5.65;;;12.40;99.90;;;;;;5085245;28;20402;-77
2023/10/07 06:10:38;;;;;;;14.00;7.03;;;12.40;99.90;;;;;;5083150;28;20673;-79
2023/10/07 06:13:08;;;;;;;11.40;6.30;;;12.50;99.90;;;;;;5094226;28;20668;-77
2023/10/07 06:15:35;;;;;;;7.03;5.47;;;12.60;99.90;;;;;;5102460;28;20523;-79
2023/10/07 06:18:01;;;;;;;9.30;5.57;;;12.70;99.90;;;;;;5104034;28;20420;-78
2023/10/07 06:20:27;;;;;;;9.70;6.07;;;12.80;99.90;;;;;;5104324;28;20462;-76
2023/10/07 06:23:00;;;;;;;11.97;6.07;;;12.90;99.90;;;;;;5104503;28;20214;-78
2023/10/07 06:25:33;;;;;;;9.50;5.47;;;13.00;99.90;;;;;;5105887;28;20471;-78
2023/10/07 06:27:59;;;;;;;9.93;6.33;;;13.20;99.90;;;;;;5106039;28;20431;-76
2023/10/07 06:30:26;;;;;;;8.63;5.00;;;13.40;99.90;;;;;;5099030;28;20989;-78
2023/10/07 06:32:55;;;;;;;13.50;5.40;;;13.50;99.90;;;;;;5099477;28;20458;-76
2023/10/07 06:35:23;;;;;;;12.37;5.83;;;13.70;99.90;;;;;;5094352;28;21261;-76
2023/10/07 06:37:52;;;;;;;13.87;5.80;;;13.90;99.90;;;;;;5102710;27;20787;-76
2023/10/07 06:40:25;;;;;;;7.53;5.40;;;14.00;99.90;;;;;;5091234;28;20482;-78
2023/10/07 06:42:52;;;;;;;7.80;5.33;;;14.20;99.90;;;;;;5093981;28;20440;-80
2023/10/07 06:45:18;;;;;;;8.97;5.80;;;14.30;99.90;;;;;;5082507;28;20606;-81
2023/10/07 06:47:48;;;;;;;9.47;5.43;;;14.40;99.90;;;;;;5087078;28;20503;-78
2023/10/07 06:50:19;;;;;;;6.00;4.67;;;14.50;99.90;;;;;;5079588;27;20295;-76
2023/10/07 06:52:47;;;;;;;9.30;5.23;;;14.50;99.90;;;;;;5093104;27;20428;-76
2023/10/07 06:55:15;;;;;;;5.77;4.60;;;14.70;99.90;;;;;;5083979;28;20527;-77
2023/10/07 06:57:46;;;;;;;10.03;4.60;;;14.80;99.90;;;;;;5078066;28;20421;-77
2023/10/07 07:00:22;;;;;;;7.87;5.03;;;14.90;99.90;;;;;;5084851;28;20475;-77
2023/10/07 07:02:54;;;;;;;5.70;3.80;;;15.00;99.90;;;;;;5088536;28;20423;-77
2023/10/07 07:05:20;;;;;;;13.73;4.60;;;15.10;99.90;;;;;;5094314;28;20626;-77
2023/10/07 07:07:45;;;;;;;8.40;4.23;;;15.20;99.90;;;;;;5097566;28;21039;-77
2023/10/07 07:10:16;;;;;;;7.57;4.20;;;15.30;99.90;;;;;;5093890;28;21140;-79
2023/10/07 07:12:42;;;;;;;6.63;4.43;;;15.50;99.90;;;;;;5094235;28;20370;-77
2023/10/07 07:15:08;;;;;;;11.13;4.80;;;15.60;99.90;;;;;;5093770;28;20451;-77
2023/10/07 07:22:36;;;;;;;6.87;4.20;;;16.20;99.90;;;;;;5093214;28;20803;-79
2023/10/07 07:25:04;;;;;;;5.27;3.60;;;16.30;99.90;;;;;;5091736;28;20475;-80
2023/10/07 07:27:34;;;;;;;5.27;3.70;;;16.50;99.90;;;;;;5097619;28;20641;-79
2023/10/07 07:30:03;;;;;;;5.73;4.10;;;16.60;99.90;;;;;;5097217;28;20447;-79
2023/10/07 07:32:32;;;;;;;5.50;2.80;;;16.90;99.90;;;;;;5101513;28;21170;-79
2023/10/07 07:35:03;;;;;;;6.00;3.30;;;17.00;99.90;;;;;;5101610;28;20444;-79
2023/10/07 07:37:32;;;;;;;4.30;3.50;;;17.20;99.90;;;;;;5105232;28;20424;-79
2023/10/07 07:40:28;;;;;;;6.70;3.63;;;17.40;99.90;;;;;;5105344;28;20480;-79
2023/10/07 07:42:56;;;;;;;4.07;3.10;;;17.60;99.90;;;;;;5104850;28;20465;-79
2023/10/07 07:45:28;;;;;;;9.67;3.57;;;17.90;99.90;;;;;;5103823;28;20552;-79
2023/10/07 07:47:54;;;;;;;5.33;3.30;;;18.10;99.90;;;;;;5106410;28;20777;-79
2023/10/07 07:50:20;;;;;;;5.30;3.40;;;18.40;99.90;;;;;;5106119;28;20430;-78
2023/10/07 07:52:49;;;;;;;4.30;2.67;;;18.90;99.90;;;;;;5105465;28;20770;-78
2023/10/07 07:55:16;;;;;;;6.00;2.60;;;19.40;99.90;;;;;;5106266;28;20434;-79
2023/10/07 07:57:44;;;;;;;5.07;3.03;;;20.00;99.90;;;;;;5106318;28;20399;-78
2023/10/07 08:00:20;;;;;;;3.67;2.57;;;20.70;99.90;;;;;;5102266;28;20972;-78
2023/10/07 08:02:49;;;;;;;8.20;2.87;;;21.60;99.90;;;;;;5102093;28;20443;-78
2023/10/07 08:05:18;;;;;;;4.13;2.67;;;22.40;99.90;;;;;;5102494;28;20444;-78
2023/10/07 08:07:46;;;;;;;5.13;2.70;;;23.30;99.90;;;;;;5097579;28;20436;-78
2023/10/07 08:10:12;;;;;;;6.50;2.50;;;24.20;99.90;;;;;;5092056;28;20482;-79
2023/10/07 08:12:37;;;;;;;2.90;1.93;;;25.10;98.60;;;;;;5099631;28;20428;-78
2023/10/07 08:15:21;;;;;;;6.17;2.90;;;25.90;96.90;;;;;;5099817;28;20255;-79
2023/10/07 08:17:56;;;;;;;4.70;2.83;;;26.70;95.20;;;;;;5102618;28;20258;-78
2023/10/07 08:20:37;;;;;;;5.83;3.20;;;27.20;94.70;;;;;;5102001;28;20807;-78
2023/10/07 08:23:07;;;;;;;6.90;2.83;;;27.70;93.50;;;;;;5101465;28;20522;-79
2023/10/07 08:25:46;;;;;;;2.90;2.43;;;28.30;92.60;;;;;;5101633;28;20833;-78
2023/10/07 08:28:18;;;;;;;3.97;2.60;;;28.70;91.50;;;;;;5100143;28;20436;-78
2023/10/07 08:30:48;;;;;;;3.60;2.50;;;28.90;91.00;;;;;;5103095;28;20480;-78
2023/10/07 08:33:15;;;;;;;5.90;2.93;;;29.10;90.90;;;;;;5102199;28;20448;-78
2023/10/07 08:35:43;;;;;;;3.93;2.80;;;29.20;90.50;;;;;;5104988;28;20430;-78
2023/10/07 08:38:37;;;;;;;4.20;2.77;;;29.00;90.10;;;;;;5105582;28;20837;-79
2023/10/07 08:41:04;;;;;;;4.67;2.70;;;28.60;90.20;;;;;;5103604;28;20845;-78
2023/10/07 08:43:43;;;;;;;4.60;2.73;;;28.00;90.00;;;;;;5105633;28;20408;-78
2023/10/07 08:46:16;;;;;;;7.73;3.80;;;27.30;90.50;;;;;;5105125;28;20474;-79
2023/10/07 08:48:49;;;;;;;4.47;2.97;;;26.70;91.20;;;;;;5104392;28;20449;-78
2023/10/07 08:51:25;;;;;;;4.57;2.93;;;26.20;91.60;;;;;;5104498;28;20823;-79
2023/10/07 08:53:57;;;;;;;8.63;3.40;;;25.70;92.10;;;;;;5102268;28;20976;-78
2023/10/07 08:56:27;;;;;;;4.23;2.63;;;25.30;92.70;;;;;;5102331;28;20436;-78
2023/10/07 08:58:54;;;;;;;5.37;2.80;;;25.00;92.80;;;;;;5104097;28;20556;-78
2023/10/07 09:01:24;;;;;;;5.40;3.00;;;24.50;93.30;;;;;;5101498;28;20970;-78
2023/10/07 09:03:52;;;;;;;3.03;2.60;;;24.10;94.00;;;;;;5102858;28;20890;-78
2023/10/07 09:06:19;;;;;;;3.67;2.93;;;23.90;94.40;;;;;;5101344;28;20528;-78
2023/10/07 09:08:45;;;;;;;6.83;3.33;;;23.70;94.60;;;;;;5102739;28;20602;-78
2023/10/07 09:11:13;;;;;;;5.53;3.00;;;23.50;94.80;;;;;;5102550;28;21124;-78
2023/10/07 09:13:39;;;;;;;5.17;3.17;;;23.40;95.30;;;;;;5104061;28;20198;-78
2023/10/07 09:16:07;;;;;;;4.93;3.20;;;23.40;95.60;;;;;;5103708;28;20414;-79
2023/10/07 09:18:41;;;;;;;5.20;3.03;;;23.40;95.20;;;;;;5104208;28;20426;-78
2023/10/07 09:21:09;;;;;;;4.70;3.17;;;23.30;95.30;;;;;;5104642;28;20442;-78
2023/10/07 09:23:47;;;;;;;4.33;3.47;;;23.30;95.60;;;;;;5107929;28;20933;-78
2023/10/07 09:26:30;;;;;;;6.57;3.50;;;23.30;95.60;;;;;;5109067;28;20994;-78
2023/10/07 09:28:59;;;;;;;9.33;4.53;;;23.30;95.60;;;;;;5108484;28;20448;-78
2023/10/07 09:31:27;;;;;;;5.13;3.70;;;23.20;95.90;;;;;;5108195;28;20415;-77
2023/10/07 09:34:01;;;;;;;6.80;3.47;;;23.20;96.00;;;;;;5108703;28;20509;-78
2023/10/07 09:42:04;;;;;;;7.10;3.57;;;23.30;96.30;;;;;;5096176;28;20190;-78
2023/10/07 09:44:31;;;;;;;5.13;3.23;;;23.40;95.80;;;;;;5107641;28;20464;-78
2023/10/07 09:47:03;;;;;;;4.17;2.67;;;23.40;95.80;;;;;;5107700;28;20422;-78
2023/10/07 09:49:30;;;;;;;5.70;3.30;;;23.30;95.80;;;;;;5108808;28;20723;-78
2023/10/07 09:52:16;;;;;;;5.17;3.57;;;23.30;96.10;;;;;;5104545;28;20468;-78
2023/10/07 09:55:07;;;;;;;4.90;3.47;;;23.20;96.10;;;;;;5105277;28;20845;-78
2023/10/07 09:57:55;;;;;;;2.70;2.40;;;23.20;96.30;;;;;;5096602;28;20406;-78
2023/10/07 10:03:12;;;;;;;2.77;2.30;;;23.10;96.40;;;;;;5092905;28;20424;-78
2023/10/07 10:06:26;;;;;;;5.40;3.40;;;23.10;96.50;;;;;;5090148;28;20893;-78
2023/10/07 10:08:59;;;;;;;5.13;2.73;;;23.20;96.60;;;;;;5087182;28;20588;-78
2023/10/07 10:11:44;;;;;;;10.50;4.13;;;23.20;95.80;;;;;;5084207;28;20546;-78
2023/10/07 10:16:45;;;;;;;3.20;2.50;;;23.10;96.20;;;;;;5085887;28;20770;-77
2023/10/07 10:19:28;;;;;;;2.77;2.40;;;23.10;95.70;;;;;;5083529;28;20454;-78
2023/10/07 10:21:54;;;;;;;3.63;2.63;;;23.00;95.50;;;;;;5083459;28;20450;-78
2023/10/07 10:24:28;;;;;;;3.30;2.77;;;23.00;95.60;;;;;;5083266;28;21138;-78
2023/10/07 10:27:09;;;;;;;4.93;3.10;;;23.00;95.30;;;;;;5088713;27;20197;-78
2023/10/07 10:29:52;;;;;;;6.33;3.63;;;23.00;95.20;;;;;;5095322;28;20846;-78
2023/10/07 10:32:28;;;;;;;4.87;3.20;;;23.10;95.40;;;;;;5082750;28;20764;-78
2023/10/07 10:35:06;;;;;;;4.63;2.70;;;23.10;95.50;;;;;;5083610;28;20467;-78
2023/10/07 10:37:32;;;;;;;4.33;2.80;;;23.10;95.50;;;;;;5084327;28;20511;-78
2023/10/07 10:40:05;;;;;;;8.73;2.70;;;23.20;95.40;;;;;;5084901;28;20634;-78
2023/10/07 10:42:47;;;;;;;3.73;2.90;;;23.30;94.90;;;;;;5085637;28;20802;-78
2023/10/07 10:45:26;;;;;;;4.23;3.03;;;23.40;95.00;;;;;;5083703;28;20532;-78
2023/10/07 10:47:53;;;;;;;5.50;3.37;;;23.40;94.50;;;;;;5087336;28;20454;-78
2023/10/07 10:50:23;;;;;;;4.00;3.03;;;23.40;94.50;;;;;;5086596;28;20432;-78
2023/10/07 10:52:50;;;;;;;4.50;2.70;;;23.40;94.90;;;;;;5087737;28;20421;-78
2023/10/07 10:55:17;;;;;;;9.07;2.70;;;23.40;94.60;;;;;;5086696;28;20435;-78
2023/10/07 10:57:43;;;;;;;5.93;3.10;;;23.50;94.90;;;;;;5086040;28;20440;-78
2023/10/07 11:00:22;;;;;;;2.80;2.47;;;23.50;94.20;;;;;;5086835;28;20431;-78
2023/10/07 11:02:55;;;;;;;3.80;2.90;;;23.50;94.10;;;;;;5087252;28;20388;-78
2023/10/07 11:05:21;;;;;;;7.20;2.80;;;23.60;94.00;;;;;;5089088;28;20836;-78
2023/10/07 11:07:50;;;;;;;4.77;2.87;;;23.60;94.00;;;;;;5103564;28;20466;-78
2023/10/07 11:10:23;;;;;;;3.90;3.00;;;23.60;94.70;;;;;;5106600;28;20954;-78
2023/10/07 11:12:56;;;;;;;2.90;2.40;;;23.60;94.40;;;;;;5107413;28;20450;-78
2023/10/07 11:15:27;;;;;;;3.70;2.83;;;23.70;94.40;;;;;;5106883;28;20492;-78
2023/10/07 11:18:13;;;;;;;4.30;2.37;;;23.70;94.50;;;;;;5107374;28;20411;-78
2023/10/07 11:20:43;;;;;;;2.73;2.30;;;23.80;93.80;;;;;;5106428;28;20431;-78
2023/10/07 11:23:10;;;;;;;3.20;2.57;;;23.90;93.40;;;;;;5104247;28;20947;-78
2023/10/07 11:25:35;;;;;;;6.17;2.90;;;23.90;92.40;;;;;;5103091;28;20585;-78
2023/10/07 11:28:09;;;;;;;3.43;2.50;;;24.00;93.00;;;;;;5103739;28;20435;-78
2023/10/07 11:30:48;;;;;;;5.53;2.90;;;24.00;92.90;;;;;;5103783;28;20251;-78
2023/10/07 11:33:19;;;;;;;4.67;2.70;;;24.10;92.00;;;;;;5102860;28;20423;-78
2023/10/07 11:35:57;;;;;;;3.50;2.20;;;24.20;92.50;;;;;;5103020;28;20450;-78
2023/10/07 11:38:25;;;;;;;3.70;2.60;;;24.20;91.90;;;;;;5105827;28;20455;-78
2023/10/07 11:40:51;;;;;;;6.90;2.93;;;24.20;91.70;;;;;;5105007;28;20435;-78
2023/10/07 11:43:16;;;;;;;3.27;2.30;;;24.30;91.80;;;;;;5105060;28;20699;-78
2023/10/07 11:45:44;;;;;;;3.60;2.47;;;24.30;91.80;;;;;;5101503;28;20486;-78
2023/10/07 11:48:09;;;;;;;4.40;2.43;;;24.40;91.70;;;;;;5102156;28;20176;-78
2023/10/07 11:50:35;;;;;;;4.47;2.73;;;24.40;91.50;;;;;;5103640;28;20958;-78
2023/10/07 11:53:02;;;;;;;2.97;2.67;;;24.40;91.70;;;;;;5104895;28;20640;-78
2023/10/07 11:55:27;;;;;;;4.10;2.37;;;24.40;91.50;;;;;;5104372;28;20447;-78
2023/10/07 11:57:54;;;;;;;4.77;3.10;;;24.40;91.30;;;;;;5106386;27;20482;-78
2023/10/07 12:00:23;;;;;;;4.70;2.57;;;24.40;90.90;;;;;;5104902;28;20235;-78
2023/10/07 12:02:52;;;;;;;4.63;2.30;;;24.40;90.50;;;;;;5105347;28;21002;-79
2023/10/07 12:05:18;;;;;;;2.67;2.10;;;24.50;90.40;;;;;;5103425;28;20832;-79
2023/10/07 12:07:47;;;;;;;6.97;2.60;;;24.50;90.80;;;;;;5088413;28;20424;-79
2023/10/07 12:10:17;;;;;;;3.17;2.30;;;24.50;90.00;;;;;;5096899;28;20717;-79
2023/10/07 12:12:43;;;;;;;3.80;2.57;;;24.50;90.10;;;;;;5104023;28;20960;-79
2023/10/07 12:15:18;;;;;;;4.27;2.40;;;24.50;89.50;;;;;;5103096;28;20452;-79
2023/10/07 12:17:50;;;;;;;3.17;1.97;;;24.50;90.00;;;;;;5105762;28;20491;-79
2023/10/07 12:20:16;;;;;;;3.93;2.80;;;24.50;89.80;;;;;;5103833;28;20448;-79
2023/10/07 12:22:43;;;;;;;4.80;2.80;;;24.40;89.80;;;;;;5100230;28;20749;-79
2023/10/07 12:25:16;;;;;;;7.50;3.23;;;24.40;89.70;;;;;;5081611;28;20216;-79
2023/10/07 12:27:51;;;;;;;5.27;2.80;;;24.40;90.40;;;;;;5083726;28;20480;-79
2023/10/07 12:30:21;;;;;;;3.93;3.27;;;24.40;90.40;;;;;;5100355;28;20455;-79
2023/10/07 12:32:48;;;;;;;5.50;2.77;;;24.50;90.00;;;;;;5102154;28;20537;-79
2023/10/07 12:35:15;;;;;;;3.83;2.43;;;24.40;90.30;;;;;;5100558;28;20464;-79
2023/10/07 12:37:46;;;;;;;3.83;2.50;;;24.40;90.80;;;;;;5103332;28;20454;-78
2023/10/07 12:40:14;;;;;;;4.90;2.47;;;24.40;90.60;;;;;;5101824;28;20534;-79
2023/10/07 12:42:52;;;;;;;3.63;2.60;;;24.40;91.10;;;;;;5101474;28;20942;-79
2023/10/07 12:45:18;;;;;;;7.13;3.30;;;24.50;90.90;;;;;;5100712;28;20490;-79
2023/10/07 12:47:45;;;;;;;3.13;2.53;;;24.50;91.50;;;;;;5101873;28;20396;-79
2023/10/07 12:50:20;;;;;;;7.83;5.27;;;24.50;91.30;;;;;;5098777;28;20428;-79
2023/10/07 12:52:57;;;;;;;5.10;3.50;;;24.50;91.60;;;;;;5102436;28;20780;-79
2023/10/07 12:55:32;;;;;;;7.70;6.10;;;24.50;91.80;;;;;;5102045;28;20495;-79
2023/10/07 12:58:05;;;;;;;3.70;2.40;;;24.50;91.00;;;;;;5105054;28;20418;-79
2023/10/07 13:00:33;;;;;;;5.20;2.70;;;24.60;90.90;;;;;;5106269;28;20948;-79
2023/10/07 13:03:04;;;;;;;3.53;2.60;;;24.60;90.80;;;;;;5104625;28;20758;-78
2023/10/07 13:05:33;;;;;;;6.30;3.10;;;24.60;90.90;;;;;;5105798;28;20776;-79
2023/10/07 13:07:59;;;;;;;3.23;2.47;;;24.70;90.80;;;;;;5106212;28;20805;-78
2023/10/07 13:10:26;;;;;;;3.83;2.60;;;24.70;90.40;;;;;;5108025;28;20464;-79
2023/10/07 13:12:55;;;;;;;5.73;2.73;;;24.70;90.40;;;;;;5098938;28;20531;-79
2023/10/07 13:15:30;;;;;;;3.07;2.20;;;24.70;90.50;;;;;;5087478;28;20463;-78
2023/10/07 13:17:58;;;;;;;7.10;2.90;;;24.70;90.50;;;;;;5086822;28;20466;-79
2023/10/07 13:20:26;;;;;;;4.30;2.77;;;24.80;90.30;;;;;;5085009;28;20832;-79
2023/10/07 13:22:57;;;;;;;5.33;3.60;;;24.90;90.30;;;;;;5084310;28;20441;-79
2023/10/07 13:25:24;;;;;;;4.63;3.13;;;24.90;90.40;;;;;;5084533;28;20476;-79
2023/10/07 13:27:50;;;;;;;6.03;2.83;;;24.90;90.10;;;;;;5083892;28;20405;-78
2023/10/07 13:30:17;;;;;;;7.37;5.10;;;24.90;90.00;;;;;;5084869;28;20433;-78
2023/10/07 13:32:46;;;;;;;5.77;3.10;;;24.90;90.20;;;;;;5083015;28;20828;-78
2023/10/07 13:35:16;;;;;;;3.53;2.93;;;24.90;90.20;;;;;;5083481;28;20638;-78
2023/10/07 13:37:46;;;;;;;4.23;2.53;;;25.00;90.30;;;;;;5084542;28;20435;-79
2023/10/07 13:40:16;;;;;;;7.03;3.03;;;25.00;90.30;;;;;;5086065;28;20493;-79
2023/10/07 13:42:54;;;;;;;3.23;2.53;;;25.00;90.30;;;;;;5086056;28;20618;-79
2023/10/07 13:45:24;;;;;;;5.37;2.83;;;25.00;90.10;;;;;;5084594;28;20835;-79
2023/10/07 13:47:51;;;;;;;3.33;2.67;;;25.00;90.10;;;;;;5085106;28;20921;-79
2023/10/07 13:50:28;;;;;;;3.57;2.60;;;25.00;90.40;;;;;;5084353;28;20438;-79